sensor_id;sensor_type;location;lat;lon;timestamp;P1;durP1;ratioP1;P2;durP2;ratioP2
3343;SDS011;1685;53.104;8.228;2022-12-19T00:01:01;23.30;;;13.60;;
3343;SDS011;1685;53.104;8.228;2022-12-19T00:03:30;24.30;;;13.80;;
3343;SDS011;1685;53.104;8.228;2022-12-19T00:05:59;22.27;;;13.07;;
3343;SDS011;1685;53.104;8.228;2022-12-19T00:08:27;20.47;;;11.93;;
3343;SDS011;1685;53.104;8.228;2022-12-19T00:10:57;21.23;;;12.60;;
3343;SDS011;1685;53.104;8.228;2022-12-19T00:13:25;22.50;;;13.20;;
3343;SDS011;1685;53.104;8.228;2022-12-19T00:15:54;19.70;;;12.67;;
3343;SDS011;1685;53.104;8.228;2022-12-19T00:18:21;22.33;;;13.20;;
3343;SDS011;1685;53.104;8.228;2022-12-19T00:20:54;29.53;;;14.37;;
3343;SDS011;1685;53.104;8.228;2022-12-19T00:23:23;29.70;;;15.10;;
3343;SDS011;1685;53.104;8.228;2022-12-19T00:25:50;26.17;;;14.47;;
3343;SDS011;1685;53.104;8.228;2022-12-19T00:28:17;24.10;;;14.60;;
3343;SDS011;1685;53.104;8.228;2022-12-19T00:30:45;24.70;;;15.03;;
3343;SDS011;1685;53.104;8.228;2022-12-19T00:33:13;25.73;;;14.87;;
3343;SDS011;1685;53.104;8.228;2022-12-19T00:35:40;26.30;;;14.40;;
3343;SDS011;1685;53.104;8.228;2022-12-19T00:38:07;25.63;;;14.57;;
3343;SDS011;1685;53.104;8.228;2022-12-19T00:40:34;25.40;;;13.60;;
3343;SDS011;1685;53.104;8.228;2022-12-19T00:43:01;27.47;;;15.10;;
3343;SDS011;1685;53.104;8.228;2022-12-19T00:45:28;26.03;;;14.73;;
3343;SDS011;1685;53.104;8.228;2022-12-19T00:47:55;26.07;;;15.33;;
3343;SDS011;1685;53.104;8.228;2022-12-19T00:50:23;26.57;;;15.57;;
3343;SDS011;1685;53.104;8.228;2022-12-19T00:52:50;30.67;;;16.07;;
3343;SDS011;1685;53.104;8.228;2022-12-19T00:55:17;26.30;;;14.67;;
3343;SDS011;1685;53.104;8.228;2022-12-19T00:57:44;29.10;;;16.17;;
3343;SDS011;1685;53.104;8.228;2022-12-19T01:00:12;30.17;;;16.10;;
3343;SDS011;1685;53.104;8.228;2022-12-19T01:02:39;26.27;;;16.47;;
3343;SDS011;1685;53.104;8.228;2022-12-19T01:05:07;31.83;;;17.17;;
3343;SDS011;1685;53.104;8.228;2022-12-19T01:07:35;22.77;;;14.43;;
3343;SDS011;1685;53.104;8.228;2022-12-19T01:10:02;27.73;;;15.47;;
3343;SDS011;1685;53.104;8.228;2022-12-19T01:12:30;29.20;;;16.17;;
3343;SDS011;1685;53.104;8.228;2022-12-19T01:15:11;33.57;;;15.70;;
3343;SDS011;1685;53.104;8.228;2022-12-19T01:17:39;34.07;;;16.60;;
3343;SDS011;1685;53.104;8.228;2022-12-19T01:20:07;32.20;;;17.13;;
3343;SDS011;1685;53.104;8.228;2022-12-19T01:22:36;31.40;;;17.07;;
3343;SDS011;1685;53.104;8.228;2022-12-19T01:25:02;31.37;;;16.67;;
3343;SDS011;1685;53.104;8.228;2022-12-19T01:27:30;33.60;;;16.60;;
3343;SDS011;1685;53.104;8.228;2022-12-19T01:29:57;28.33;;;15.93;;
3343;SDS011;1685;53.104;8.228;2022-12-19T01:32:24;29.47;;;16.07;;
3343;SDS011;1685;53.104;8.228;2022-12-19T01:34:51;38.03;;;18.33;;
3343;SDS011;1685;53.104;8.228;2022-12-19T01:37:18;29.30;;;15.63;;
3343;SDS011;1685;53.104;8.228;2022-12-19T01:39:46;27.90;;;16.20;;
3343;SDS011;1685;53.104;8.228;2022-12-19T01:42:13;37.73;;;16.90;;
3343;SDS011;1685;53.104;8.228;2022-12-19T01:47:42;30.33;;;16.37;;
3343;SDS011;1685;53.104;8.228;2022-12-19T01:50:14;29.23;;;15.70;;
3343;SDS011;1685;53.104;8.228;2022-12-19T01:52:42;34.53;;;18.20;;
3343;SDS011;1685;53.104;8.228;2022-12-19T01:55:11;32.00;;;17.47;;
3343;SDS011;1685;53.104;8.228;2022-12-19T01:57:38;31.13;;;16.50;;
3343;SDS011;1685;53.104;8.228;2022-12-19T02:00:06;35.47;;;17.57;;
3343;SDS011;1685;53.104;8.228;2022-12-19T02:02:35;33.13;;;18.03;;
3343;SDS011;1685;53.104;8.228;2022-12-19T02:05:06;26.20;;;15.33;;
3343;SDS011;1685;53.104;8.228;2022-12-19T02:07:33;32.27;;;18.40;;
3343;SDS011;1685;53.104;8.228;2022-12-19T02:10:02;30.33;;;18.43;;
3343;SDS011;1685;53.104;8.228;2022-12-19T02:12:32;33.47;;;17.37;;
3343;SDS011;1685;53.104;8.228;2022-12-19T02:15:00;33.13;;;17.30;;
3343;SDS011;1685;53.104;8.228;2022-12-19T02:17:31;38.10;;;18.13;;
3343;SDS011;1685;53.104;8.228;2022-12-19T02:20:11;32.73;;;17.10;;
3343;SDS011;1685;53.104;8.228;2022-12-19T02:22:55;29.43;;;18.40;;
3343;SDS011;1685;53.104;8.228;2022-12-19T02:25:38;34.63;;;18.40;;
3343;SDS011;1685;53.104;8.228;2022-12-19T02:31:22;32.23;;;17.10;;
3343;SDS011;1685;53.104;8.228;2022-12-19T02:33:55;35.07;;;18.47;;
3343;SDS011;1685;53.104;8.228;2022-12-19T02:36:28;32.80;;;18.57;;
3343;SDS011;1685;53.104;8.228;2022-12-19T02:39:02;32.40;;;17.30;;
3343;SDS011;1685;53.104;8.228;2022-12-19T02:41:34;38.00;;;18.13;;
3343;SDS011;1685;53.104;8.228;2022-12-19T02:44:08;33.10;;;18.23;;
3343;SDS011;1685;53.104;8.228;2022-12-19T02:46:39;33.97;;;17.90;;
3343;SDS011;1685;53.104;8.228;2022-12-19T02:49:08;34.33;;;17.60;;
3343;SDS011;1685;53.104;8.228;2022-12-19T02:51:36;37.87;;;18.50;;
3343;SDS011;1685;53.104;8.228;2022-12-19T02:54:03;33.23;;;17.27;;
3343;SDS011;1685;53.104;8.228;2022-12-19T02:56:33;35.17;;;18.10;;
3343;SDS011;1685;53.104;8.228;2022-12-19T02:59:09;35.10;;;18.27;;
3343;SDS011;1685;53.104;8.228;2022-12-19T03:01:46;35.97;;;17.50;;
3343;SDS011;1685;53.104;8.228;2022-12-19T03:04:22;29.60;;;15.33;;
3343;SDS011;1685;53.104;8.228;2022-12-19T03:06:59;33.17;;;17.40;;
3343;SDS011;1685;53.104;8.228;2022-12-19T03:09:30;34.47;;;17.40;;
3343;SDS011;1685;53.104;8.228;2022-12-19T03:12:06;35.63;;;17.80;;
3343;SDS011;1685;53.104;8.228;2022-12-19T03:14:36;34.13;;;17.67;;
3343;SDS011;1685;53.104;8.228;2022-12-19T03:17:05;34.40;;;16.83;;
3343;SDS011;1685;53.104;8.228;2022-12-19T03:19:33;32.20;;;16.27;;
3343;SDS011;1685;53.104;8.228;2022-12-19T03:22:01;29.77;;;16.60;;
3343;SDS011;1685;53.104;8.228;2022-12-19T03:24:28;31.43;;;17.23;;
3343;SDS011;1685;53.104;8.228;2022-12-19T03:26:55;37.80;;;17.97;;
3343;SDS011;1685;53.104;8.228;2022-12-19T03:29:28;27.77;;;17.10;;
3343;SDS011;1685;53.104;8.228;2022-12-19T03:32:00;35.43;;;18.33;;
3343;SDS011;1685;53.104;8.228;2022-12-19T03:34:31;28.13;;;16.63;;
3343;SDS011;1685;53.104;8.228;2022-12-19T03:37:02;34.73;;;17.23;;
3343;SDS011;1685;53.104;8.228;2022-12-19T03:39:32;31.37;;;17.00;;
3343;SDS011;1685;53.104;8.228;2022-12-19T03:42:00;30.37;;;15.90;;
3343;SDS011;1685;53.104;8.228;2022-12-19T03:44:47;30.37;;;15.60;;
3343;SDS011;1685;53.104;8.228;2022-12-19T03:47:16;32.40;;;18.10;;
3343;SDS011;1685;53.104;8.228;2022-12-19T03:49:48;36.53;;;16.93;;
3343;SDS011;1685;53.104;8.228;2022-12-19T03:52:19;34.33;;;17.77;;
3343;SDS011;1685;53.104;8.228;2022-12-19T03:54:53;31.87;;;17.30;;
3343;SDS011;1685;53.104;8.228;2022-12-19T03:57:27;29.80;;;16.00;;
3343;SDS011;1685;53.104;8.228;2022-12-19T03:59:59;32.80;;;16.90;;
3343;SDS011;1685;53.104;8.228;2022-12-19T04:02:29;32.30;;;17.30;;
3343;SDS011;1685;53.104;8.228;2022-12-19T04:05:04;31.30;;;15.80;;
3343;SDS011;1685;53.104;8.228;2022-12-19T04:07:32;32.43;;;18.07;;
3343;SDS011;1685;53.104;8.228;2022-12-19T04:10:01;31.77;;;17.40;;
3343;SDS011;1685;53.104;8.228;2022-12-19T04:12:33;30.23;;;16.90;;
3343;SDS011;1685;53.104;8.228;2022-12-19T04:15:03;32.07;;;17.20;;
3343;SDS011;1685;53.104;8.228;2022-12-19T04:17:33;32.10;;;17.90;;
3343;SDS011;1685;53.104;8.228;2022-12-19T04:20:07;31.83;;;17.97;;
3343;SDS011;1685;53.104;8.228;2022-12-19T04:22:37;35.17;;;17.87;;
3343;SDS011;1685;53.104;8.228;2022-12-19T04:25:08;30.70;;;16.90;;
3343;SDS011;1685;53.104;8.228;2022-12-19T04:27:37;34.77;;;18.17;;
3343;SDS011;1685;53.104;8.228;2022-12-19T04:30:08;36.87;;;19.00;;
3343;SDS011;1685;53.104;8.228;2022-12-19T04:32:39;36.90;;;17.50;;
3343;SDS011;1685;53.104;8.228;2022-12-19T04:35:09;31.73;;;16.80;;
3343;SDS011;1685;53.104;8.228;2022-12-19T04:37:36;39.90;;;18.30;;
3343;SDS011;1685;53.104;8.228;2022-12-19T04:40:04;33.70;;;17.70;;
3343;SDS011;1685;53.104;8.228;2022-12-19T04:42:32;38.87;;;17.60;;
3343;SDS011;1685;53.104;8.228;2022-12-19T04:44:59;40.40;;;18.20;;
3343;SDS011;1685;53.104;8.228;2022-12-19T04:47:26;38.33;;;19.20;;
3343;SDS011;1685;53.104;8.228;2022-12-19T04:49:53;36.10;;;18.97;;
3343;SDS011;1685;53.104;8.228;2022-12-19T04:52:21;38.20;;;18.77;;
3343;SDS011;1685;53.104;8.228;2022-12-19T04:54:48;37.40;;;19.37;;
3343;SDS011;1685;53.104;8.228;2022-12-19T04:57:14;40.40;;;20.13;;
3343;SDS011;1685;53.104;8.228;2022-12-19T04:59:42;34.10;;;17.73;;
3343;SDS011;1685;53.104;8.228;2022-12-19T05:02:09;37.67;;;18.80;;
3343;SDS011;1685;53.104;8.228;2022-12-19T05:04:36;45.27;;;19.67;;
3343;SDS011;1685;53.104;8.228;2022-12-19T05:07:03;41.67;;;19.10;;
3343;SDS011;1685;53.104;8.228;2022-12-19T05:09:31;35.93;;;19.37;;
3343;SDS011;1685;53.104;8.228;2022-12-19T05:12:02;42.63;;;19.57;;
3343;SDS011;1685;53.104;8.228;2022-12-19T05:14:28;40.70;;;20.57;;
3343;SDS011;1685;53.104;8.228;2022-12-19T05:16:55;44.50;;;18.90;;
3343;SDS011;1685;53.104;8.228;2022-12-19T05:19:22;41.17;;;20.20;;
3343;SDS011;1685;53.104;8.228;2022-12-19T05:21:50;35.93;;;18.00;;
3343;SDS011;1685;53.104;8.228;2022-12-19T05:24:17;49.80;;;21.63;;
3343;SDS011;1685;53.104;8.228;2022-12-19T05:26:46;42.43;;;19.70;;
3343;SDS011;1685;53.104;8.228;2022-12-19T05:29:13;55.70;;;20.70;;
3343;SDS011;1685;53.104;8.228;2022-12-19T05:31:40;47.60;;;20.77;;
3343;SDS011;1685;53.104;8.228;2022-12-19T05:34:07;51.33;;;21.30;;
3343;SDS011;1685;53.104;8.228;2022-12-19T05:36:34;46.13;;;20.67;;
3343;SDS011;1685;53.104;8.228;2022-12-19T05:39:01;37.60;;;18.20;;
3343;SDS011;1685;53.104;8.228;2022-12-19T05:41:28;42.43;;;21.17;;
3343;SDS011;1685;53.104;8.228;2022-12-19T05:43:57;40.73;;;19.80;;
3343;SDS011;1685;53.104;8.228;2022-12-19T05:46:24;46.27;;;20.00;;
3343;SDS011;1685;53.104;8.228;2022-12-19T05:48:51;45.70;;;20.50;;
3343;SDS011;1685;53.104;8.228;2022-12-19T05:51:18;45.03;;;21.80;;
3343;SDS011;1685;53.104;8.228;2022-12-19T05:53:45;35.60;;;18.87;;
3343;SDS011;1685;53.104;8.228;2022-12-19T05:56:13;41.70;;;20.60;;
3343;SDS011;1685;53.104;8.228;2022-12-19T05:58:41;38.87;;;20.03;;
3343;SDS011;1685;53.104;8.228;2022-12-19T06:01:11;45.20;;;20.90;;
3343;SDS011;1685;53.104;8.228;2022-12-19T06:03:43;42.70;;;19.70;;
3343;SDS011;1685;53.104;8.228;2022-12-19T06:06:11;42.43;;;20.73;;
3343;SDS011;1685;53.104;8.228;2022-12-19T06:08:43;38.20;;;19.50;;
3343;SDS011;1685;53.104;8.228;2022-12-19T06:11:11;42.47;;;19.57;;
3343;SDS011;1685;53.104;8.228;2022-12-19T06:13:39;51.37;;;20.00;;
3343;SDS011;1685;53.104;8.228;2022-12-19T06:16:08;44.70;;;19.77;;
3343;SDS011;1685;53.104;8.228;2022-12-19T06:18:37;41.93;;;20.50;;
3343;SDS011;1685;53.104;8.228;2022-12-19T06:21:06;46.30;;;20.03;;
3343;SDS011;1685;53.104;8.228;2022-12-19T06:23:35;52.53;;;21.37;;
3343;SDS011;1685;53.104;8.228;2022-12-19T06:26:03;46.53;;;22.47;;
3343;SDS011;1685;53.104;8.228;2022-12-19T06:28:31;48.07;;;20.30;;
3343;SDS011;1685;53.104;8.228;2022-12-19T06:31:00;48.50;;;21.00;;
3343;SDS011;1685;53.104;8.228;2022-12-19T06:33:30;41.03;;;21.00;;
3343;SDS011;1685;53.104;8.228;2022-12-19T06:35:58;43.57;;;21.97;;
3343;SDS011;1685;53.104;8.228;2022-12-19T06:38:26;49.43;;;20.07;;
3343;SDS011;1685;53.104;8.228;2022-12-19T06:40:53;51.63;;;23.30;;
3343;SDS011;1685;53.104;8.228;2022-12-19T06:43:37;44.47;;;19.93;;
3343;SDS011;1685;53.104;8.228;2022-12-19T06:46:04;58.83;;;21.27;;
3343;SDS011;1685;53.104;8.228;2022-12-19T06:48:32;46.10;;;21.03;;
3343;SDS011;1685;53.104;8.228;2022-12-19T06:50:59;53.43;;;20.87;;
3343;SDS011;1685;53.104;8.228;2022-12-19T06:53:26;46.73;;;21.33;;
3343;SDS011;1685;53.104;8.228;2022-12-19T06:55:54;50.97;;;22.40;;
3343;SDS011;1685;53.104;8.228;2022-12-19T06:58:22;46.13;;;21.13;;
3343;SDS011;1685;53.104;8.228;2022-12-19T07:00:50;52.17;;;21.30;;
3343;SDS011;1685;53.104;8.228;2022-12-19T07:03:18;44.33;;;21.57;;
3343;SDS011;1685;53.104;8.228;2022-12-19T07:05:49;56.37;;;22.53;;
3343;SDS011;1685;53.104;8.228;2022-12-19T07:08:15;45.87;;;21.67;;
3343;SDS011;1685;53.104;8.228;2022-12-19T07:10:42;54.60;;;22.33;;
3343;SDS011;1685;53.104;8.228;2022-12-19T07:13:10;46.57;;;22.47;;
3343;SDS011;1685;53.104;8.228;2022-12-19T07:15:37;45.20;;;20.83;;
3343;SDS011;1685;53.104;8.228;2022-12-19T07:18:04;57.50;;;24.23;;
3343;SDS011;1685;53.104;8.228;2022-12-19T07:20:34;44.93;;;21.17;;
3343;SDS011;1685;53.104;8.228;2022-12-19T07:23:05;46.43;;;21.90;;
3343;SDS011;1685;53.104;8.228;2022-12-19T07:25:32;53.50;;;22.80;;
3343;SDS011;1685;53.104;8.228;2022-12-19T07:27:59;42.87;;;20.70;;
3343;SDS011;1685;53.104;8.228;2022-12-19T07:30:26;46.13;;;21.77;;
3343;SDS011;1685;53.104;8.228;2022-12-19T07:32:54;43.63;;;21.53;;
3343;SDS011;1685;53.104;8.228;2022-12-19T07:35:21;50.13;;;22.40;;
3343;SDS011;1685;53.104;8.228;2022-12-19T07:37:48;55.87;;;23.27;;
3343;SDS011;1685;53.104;8.228;2022-12-19T07:40:16;50.90;;;20.97;;
3343;SDS011;1685;53.104;8.228;2022-12-19T07:42:43;51.80;;;22.73;;
3343;SDS011;1685;53.104;8.228;2022-12-19T07:45:10;55.57;;;22.47;;
3343;SDS011;1685;53.104;8.228;2022-12-19T07:47:37;47.97;;;23.10;;
3343;SDS011;1685;53.104;8.228;2022-12-19T07:50:05;54.43;;;24.20;;
3343;SDS011;1685;53.104;8.228;2022-12-19T07:52:32;53.40;;;21.87;;
3343;SDS011;1685;53.104;8.228;2022-12-19T07:54:59;46.93;;;22.73;;
3343;SDS011;1685;53.104;8.228;2022-12-19T07:57:27;62.07;;;24.97;;
3343;SDS011;1685;53.104;8.228;2022-12-19T07:59:54;50.37;;;22.03;;
3343;SDS011;1685;53.104;8.228;2022-12-19T08:02:21;51.23;;;22.10;;
3343;SDS011;1685;53.104;8.228;2022-12-19T08:04:48;61.03;;;24.67;;
3343;SDS011;1685;53.104;8.228;2022-12-19T08:07:15;57.60;;;22.37;;
3343;SDS011;1685;53.104;8.228;2022-12-19T08:09:42;55.67;;;23.97;;
3343;SDS011;1685;53.104;8.228;2022-12-19T08:12:09;58.50;;;27.30;;
3343;SDS011;1685;53.104;8.228;2022-12-19T08:14:37;58.00;;;24.57;;
3343;SDS011;1685;53.104;8.228;2022-12-19T08:17:04;45.63;;;23.60;;
3343;SDS011;1685;53.104;8.228;2022-12-19T08:19:31;59.10;;;24.93;;
3343;SDS011;1685;53.104;8.228;2022-12-19T08:21:58;54.83;;;23.60;;
3343;SDS011;1685;53.104;8.228;2022-12-19T08:24:26;55.37;;;23.50;;
3343;SDS011;1685;53.104;8.228;2022-12-19T08:26:54;64.57;;;25.00;;
3343;SDS011;1685;53.104;8.228;2022-12-19T08:29:21;58.70;;;25.83;;
3343;SDS011;1685;53.104;8.228;2022-12-19T08:31:50;66.57;;;26.03;;
3343;SDS011;1685;53.104;8.228;2022-12-19T08:34:17;56.63;;;25.13;;
3343;SDS011;1685;53.104;8.228;2022-12-19T08:36:44;52.53;;;25.37;;
3343;SDS011;1685;53.104;8.228;2022-12-19T08:39:11;54.93;;;26.00;;
3343;SDS011;1685;53.104;8.228;2022-12-19T08:41:38;56.97;;;26.67;;
3343;SDS011;1685;53.104;8.228;2022-12-19T08:44:05;64.30;;;26.90;;
3343;SDS011;1685;53.104;8.228;2022-12-19T08:46:32;60.47;;;26.60;;
3343;SDS011;1685;53.104;8.228;2022-12-19T08:49:00;60.80;;;26.00;;
3343;SDS011;1685;53.104;8.228;2022-12-19T08:51:27;73.67;;;27.10;;
3343;SDS011;1685;53.104;8.228;2022-12-19T08:53:54;64.93;;;27.87;;
3343;SDS011;1685;53.104;8.228;2022-12-19T08:56:21;75.80;;;27.07;;
3343;SDS011;1685;53.104;8.228;2022-12-19T08:58:49;51.73;;;27.07;;
3343;SDS011;1685;53.104;8.228;2022-12-19T09:01:17;59.37;;;25.57;;
3343;SDS011;1685;53.104;8.228;2022-12-19T09:03:45;66.40;;;30.83;;
3343;SDS011;1685;53.104;8.228;2022-12-19T09:06:13;74.47;;;28.27;;
3343;SDS011;1685;53.104;8.228;2022-12-19T09:08:41;64.53;;;28.30;;
3343;SDS011;1685;53.104;8.228;2022-12-19T09:11:09;63.60;;;29.23;;
3343;SDS011;1685;53.104;8.228;2022-12-19T09:13:38;55.40;;;27.97;;
3343;SDS011;1685;53.104;8.228;2022-12-19T09:16:07;60.40;;;27.17;;
3343;SDS011;1685;53.104;8.228;2022-12-19T09:18:36;63.23;;;29.30;;
3343;SDS011;1685;53.104;8.228;2022-12-19T09:21:03;67.90;;;28.50;;
3343;SDS011;1685;53.104;8.228;2022-12-19T09:23:33;51.93;;;26.17;;
3343;SDS011;1685;53.104;8.228;2022-12-19T09:26:00;71.77;;;29.33;;
3343;SDS011;1685;53.104;8.228;2022-12-19T09:28:28;66.60;;;28.20;;
3343;SDS011;1685;53.104;8.228;2022-12-19T09:30:56;60.23;;;27.60;;
3343;SDS011;1685;53.104;8.228;2022-12-19T09:33:23;47.90;;;26.03;;
3343;SDS011;1685;53.104;8.228;2022-12-19T09:35:50;50.13;;;25.60;;
3343;SDS011;1685;53.104;8.228;2022-12-19T09:38:18;55.40;;;26.03;;
3343;SDS011;1685;53.104;8.228;2022-12-19T09:40:49;60.23;;;26.10;;
3343;SDS011;1685;53.104;8.228;2022-12-19T09:43:29;64.73;;;26.70;;
3343;SDS011;1685;53.104;8.228;2022-12-19T09:46:05;52.13;;;26.93;;
3343;SDS011;1685;53.104;8.228;2022-12-19T09:48:40;45.77;;;26.07;;
3343;SDS011;1685;53.104;8.228;2022-12-19T09:51:08;52.27;;;24.03;;
3343;SDS011;1685;53.104;8.228;2022-12-19T09:53:41;52.33;;;24.40;;
3343;SDS011;1685;53.104;8.228;2022-12-19T09:56:17;60.93;;;27.40;;
3343;SDS011;1685;53.104;8.228;2022-12-19T09:58:46;51.40;;;26.87;;
3343;SDS011;1685;53.104;8.228;2022-12-19T10:01:18;61.83;;;26.75;;
3343;SDS011;1685;53.104;8.228;2022-12-19T10:03:49;53.27;;;26.47;;
3343;SDS011;1685;53.104;8.228;2022-12-19T10:06:24;50.63;;;23.63;;
3343;SDS011;1685;53.104;8.228;2022-12-19T10:08:51;55.40;;;25.47;;
3343;SDS011;1685;53.104;8.228;2022-12-19T10:11:25;48.47;;;23.77;;
3343;SDS011;1685;53.104;8.228;2022-12-19T10:14:13;45.23;;;23.97;;
3343;SDS011;1685;53.104;8.228;2022-12-19T10:16:51;47.90;;;25.23;;
3343;SDS011;1685;53.104;8.228;2022-12-19T10:19:25;50.17;;;22.70;;
3343;SDS011;1685;53.104;8.228;2022-12-19T10:22:02;42.73;;;23.60;;
3343;SDS011;1685;53.104;8.228;2022-12-19T10:24:43;43.27;;;23.87;;
3343;SDS011;1685;53.104;8.228;2022-12-19T10:27:22;46.63;;;23.37;;
3343;SDS011;1685;53.104;8.228;2022-12-19T10:29:59;46.53;;;23.57;;
3343;SDS011;1685;53.104;8.228;2022-12-19T10:32:31;49.30;;;24.43;;
3343;SDS011;1685;53.104;8.228;2022-12-19T10:35:04;38.00;;;21.17;;
3343;SDS011;1685;53.104;8.228;2022-12-19T10:37:39;44.63;;;22.10;;
3343;SDS011;1685;53.104;8.228;2022-12-19T10:40:12;38.90;;;21.43;;
3343;SDS011;1685;53.104;8.228;2022-12-19T10:42:47;43.03;;;23.40;;
3343;SDS011;1685;53.104;8.228;2022-12-19T10:45:18;39.40;;;22.30;;
3343;SDS011;1685;53.104;8.228;2022-12-19T10:47:45;45.30;;;23.60;;
3343;SDS011;1685;53.104;8.228;2022-12-19T10:50:16;48.83;;;23.10;;
3343;SDS011;1685;53.104;8.228;2022-12-19T10:52:48;51.07;;;25.40;;
3343;SDS011;1685;53.104;8.228;2022-12-19T10:55:20;60.60;;;26.60;;
3343;SDS011;1685;53.104;8.228;2022-12-19T10:57:53;54.03;;;25.67;;
3343;SDS011;1685;53.104;8.228;2022-12-19T11:00:23;48.87;;;26.50;;
3343;SDS011;1685;53.104;8.228;2022-12-19T11:02:51;61.03;;;26.70;;
3343;SDS011;1685;53.104;8.228;2022-12-19T11:05:38;58.13;;;26.20;;
3343;SDS011;1685;53.104;8.228;2022-12-19T11:08:12;61.53;;;28.50;;
3343;SDS011;1685;53.104;8.228;2022-12-19T11:10:44;58.93;;;28.47;;
3343;SDS011;1685;53.104;8.228;2022-12-19T11:13:21;57.57;;;29.67;;
3343;SDS011;1685;53.104;8.228;2022-12-19T11:15:50;72.13;;;31.73;;
3343;SDS011;1685;53.104;8.228;2022-12-19T11:18:18;59.33;;;29.47;;
3343;SDS011;1685;53.104;8.228;2022-12-19T11:20:56;65.10;;;30.67;;
3343;SDS011;1685;53.104;8.228;2022-12-19T11:23:25;69.30;;;30.83;;
3343;SDS011;1685;53.104;8.228;2022-12-19T11:25:56;68.80;;;32.60;;
3343;SDS011;1685;53.104;8.228;2022-12-19T11:28:28;70.40;;;31.87;;
3343;SDS011;1685;53.104;8.228;2022-12-19T11:30:58;75.97;;;32.90;;
3343;SDS011;1685;53.104;8.228;2022-12-19T11:33:28;79.30;;;33.77;;
3343;SDS011;1685;53.104;8.228;2022-12-19T11:35:56;60.73;;;29.80;;
3343;SDS011;1685;53.104;8.228;2022-12-19T11:38:28;64.67;;;33.30;;
3343;SDS011;1685;53.104;8.228;2022-12-19T11:41:01;61.17;;;28.73;;
3343;SDS011;1685;53.104;8.228;2022-12-19T11:43:39;71.23;;;32.37;;
3343;SDS011;1685;53.104;8.228;2022-12-19T11:46:17;63.37;;;30.30;;
3343;SDS011;1685;53.104;8.228;2022-12-19T11:48:58;64.37;;;31.70;;
3343;SDS011;1685;53.104;8.228;2022-12-19T11:51:31;69.50;;;33.23;;
3343;SDS011;1685;53.104;8.228;2022-12-19T11:54:05;65.80;;;32.10;;
3343;SDS011;1685;53.104;8.228;2022-12-19T11:56:38;57.23;;;32.00;;
3343;SDS011;1685;53.104;8.228;2022-12-19T11:59:10;61.37;;;32.53;;
3343;SDS011;1685;53.104;8.228;2022-12-19T12:01:41;71.50;;;33.10;;
3343;SDS011;1685;53.104;8.228;2022-12-19T12:07:19;68.60;;;31.40;;
3343;SDS011;1685;53.104;8.228;2022-12-19T12:09:48;68.90;;;31.67;;
3343;SDS011;1685;53.104;8.228;2022-12-19T12:12:21;68.03;;;31.43;;
3343;SDS011;1685;53.104;8.228;2022-12-19T12:15:07;68.60;;;30.13;;
3343;SDS011;1685;53.104;8.228;2022-12-19T12:17:44;63.33;;;31.20;;
3343;SDS011;1685;53.104;8.228;2022-12-19T12:20:19;57.97;;;28.40;;
3343;SDS011;1685;53.104;8.228;2022-12-19T12:22:57;65.73;;;29.57;;
3343;SDS011;1685;53.104;8.228;2022-12-19T12:25:36;66.37;;;28.93;;
3343;SDS011;1685;53.104;8.228;2022-12-19T12:28:21;74.40;;;30.83;;
3343;SDS011;1685;53.104;8.228;2022-12-19T12:31:10;63.93;;;30.20;;
3343;SDS011;1685;53.104;8.228;2022-12-19T12:33:52;64.80;;;30.30;;
3343;SDS011;1685;53.104;8.228;2022-12-19T12:36:28;56.37;;;29.00;;
3343;SDS011;1685;53.104;8.228;2022-12-19T12:39:17;66.53;;;30.23;;
3343;SDS011;1685;53.104;8.228;2022-12-19T12:41:47;62.33;;;30.60;;
3343;SDS011;1685;53.104;8.228;2022-12-19T12:44:31;57.17;;;28.53;;
3343;SDS011;1685;53.104;8.228;2022-12-19T12:47:04;65.80;;;31.90;;
3343;SDS011;1685;53.104;8.228;2022-12-19T12:49:38;69.10;;;33.37;;
3343;SDS011;1685;53.104;8.228;2022-12-19T12:52:10;66.80;;;32.50;;
3343;SDS011;1685;53.104;8.228;2022-12-19T12:54:41;69.03;;;31.47;;
3343;SDS011;1685;53.104;8.228;2022-12-19T12:57:15;65.20;;;31.60;;
3343;SDS011;1685;53.104;8.228;2022-12-19T12:59:44;66.13;;;31.50;;
3343;SDS011;1685;53.104;8.228;2022-12-19T13:02:14;76.10;;;32.33;;
3343;SDS011;1685;53.104;8.228;2022-12-19T13:04:55;65.13;;;32.30;;
3343;SDS011;1685;53.104;8.228;2022-12-19T13:07:31;71.80;;;31.50;;
3343;SDS011;1685;53.104;8.228;2022-12-19T13:10:15;66.40;;;32.47;;
3343;SDS011;1685;53.104;8.228;2022-12-19T13:12:52;72.57;;;34.40;;
3343;SDS011;1685;53.104;8.228;2022-12-19T13:15:31;64.78;;;34.53;;
3343;SDS011;1685;53.104;8.228;2022-12-19T13:21:06;70.30;;;34.37;;
3343;SDS011;1685;53.104;8.228;2022-12-19T13:26:44;75.07;;;32.22;;
3343;SDS011;1685;53.104;8.228;2022-12-19T13:29:27;71.40;;;35.43;;
3343;SDS011;1685;53.104;8.228;2022-12-19T13:32:13;72.90;;;32.70;;
3343;SDS011;1685;53.104;8.228;2022-12-19T13:34:51;64.37;;;31.70;;
3343;SDS011;1685;53.104;8.228;2022-12-19T13:37:21;56.60;;;30.03;;
3343;SDS011;1685;53.104;8.228;2022-12-19T13:40:10;67.63;;;31.67;;
3343;SDS011;1685;53.104;8.228;2022-12-19T13:43:00;68.23;;;31.50;;
3343;SDS011;1685;53.104;8.228;2022-12-19T13:45:52;69.20;;;32.97;;
3343;SDS011;1685;53.104;8.228;2022-12-19T13:48:23;72.43;;;33.70;;
3343;SDS011;1685;53.104;8.228;2022-12-19T13:50:55;76.63;;;35.37;;
3343;SDS011;1685;53.104;8.228;2022-12-19T13:53:24;75.10;;;33.00;;
3343;SDS011;1685;53.104;8.228;2022-12-19T13:55:53;73.07;;;33.40;;
3343;SDS011;1685;53.104;8.228;2022-12-19T13:58:21;71.00;;;32.57;;
3343;SDS011;1685;53.104;8.228;2022-12-19T14:00:50;60.87;;;32.13;;
3343;SDS011;1685;53.104;8.228;2022-12-19T14:03:19;69.80;;;33.87;;
3343;SDS011;1685;53.104;8.228;2022-12-19T14:05:50;65.53;;;33.07;;
3343;SDS011;1685;53.104;8.228;2022-12-19T14:08:19;65.33;;;32.73;;
3343;SDS011;1685;53.104;8.228;2022-12-19T14:10:49;69.00;;;33.40;;
3343;SDS011;1685;53.104;8.228;2022-12-19T14:13:18;71.70;;;33.27;;
3343;SDS011;1685;53.104;8.228;2022-12-19T14:16:13;67.87;;;32.53;;
3343;SDS011;1685;53.104;8.228;2022-12-19T14:18:40;65.80;;;34.23;;
3343;SDS011;1685;53.104;8.228;2022-12-19T14:21:13;62.57;;;33.10;;
3343;SDS011;1685;53.104;8.228;2022-12-19T14:23:43;76.77;;;34.40;;
3343;SDS011;1685;53.104;8.228;2022-12-19T14:26:11;72.00;;;36.17;;
3343;SDS011;1685;53.104;8.228;2022-12-19T14:28:50;65.27;;;33.47;;
3343;SDS011;1685;53.104;8.228;2022-12-19T14:31:20;62.40;;;31.50;;
3343;SDS011;1685;53.104;8.228;2022-12-19T14:33:49;68.10;;;32.37;;
3343;SDS011;1685;53.104;8.228;2022-12-19T14:36:19;66.00;;;33.87;;
3343;SDS011;1685;53.104;8.228;2022-12-19T14:38:48;65.17;;;33.67;;
3343;SDS011;1685;53.104;8.228;2022-12-19T14:41:16;68.27;;;36.03;;
3343;SDS011;1685;53.104;8.228;2022-12-19T14:44:11;67.93;;;34.23;;
3343;SDS011;1685;53.104;8.228;2022-12-19T14:46:38;63.17;;;31.80;;
3343;SDS011;1685;53.104;8.228;2022-12-19T14:49:20;70.27;;;34.37;;
3343;SDS011;1685;53.104;8.228;2022-12-19T14:51:49;64.37;;;33.13;;
3343;SDS011;1685;53.104;8.228;2022-12-19T14:54:18;58.03;;;31.07;;
3343;SDS011;1685;53.104;8.228;2022-12-19T14:56:46;67.13;;;32.97;;
3343;SDS011;1685;53.104;8.228;2022-12-19T14:59:23;59.17;;;32.03;;
3343;SDS011;1685;53.104;8.228;2022-12-19T15:01:54;61.10;;;30.77;;
3343;SDS011;1685;53.104;8.228;2022-12-19T15:04:25;61.23;;;32.90;;
3343;SDS011;1685;53.104;8.228;2022-12-19T15:06:56;59.40;;;30.40;;
3343;SDS011;1685;53.104;8.228;2022-12-19T15:09:26;55.20;;;29.77;;
3343;SDS011;1685;53.104;8.228;2022-12-19T15:11:54;63.40;;;28.97;;
3343;SDS011;1685;53.104;8.228;2022-12-19T15:14:46;51.63;;;27.50;;
3343;SDS011;1685;53.104;8.228;2022-12-19T15:17:16;52.20;;;28.97;;
3343;SDS011;1685;53.104;8.228;2022-12-19T15:19:45;57.13;;;26.73;;
3343;SDS011;1685;53.104;8.228;2022-12-19T15:22:12;60.40;;;28.30;;
3343;SDS011;1685;53.104;8.228;2022-12-19T15:24:41;52.93;;;27.97;;